Time;durP1;ratioP1;P1;durP2;ratioP2;P2;SDS_P1;SDS_P2;PMS_P1;PMS_P2;Temp;Humidity;BMP_temperature;BMP_pressure;BME280_temperature;BME280_humidity;BME280_pressure;Samples;Min_cycle;Max_cycle;Signal;HPM_P1;HPM_P2
2021/10/13 00:01:02;;;;;;;3.35;3.03;;;9.00;89.10;;;;;;5116302;28;20084;-78
2021/10/13 00:03:28;;;;;;;6.20;3.13;;;9.00;89.10;;;;;;5116269;28;20047;-78
2021/10/13 00:05:54;;;;;;;3.50;3.08;;;9.00;89.30;;;;;;5116170;28;20035;-78
2021/10/13 00:08:19;;;;;;;4.28;3.13;;;9.10;89.30;;;;;;5116077;28;20028;-77
2021/10/13 00:10:46;;;;;;;5.75;3.13;;;9.00;88.90;;;;;;5116193;28;20031;-78
2021/10/13 00:13:13;;;;;;;5.05;3.53;;;9.00;88.70;;;;;;5116036;28;20083;-78
2021/10/13 00:15:39;;;;;;;4.55;3.50;;;9.00;88.60;;;;;;5114748;28;20024;-78
2021/10/13 00:18:05;;;;;;;5.88;3.25;;;9.00;88.60;;;;;;5115988;28;20057;-78
2021/10/13 00:20:31;;;;;;;6.68;3.88;;;9.10;88.30;;;;;;5115452;28;20027;-78
2021/10/13 00:22:56;;;;;;;5.00;3.95;;;9.10;88.10;;;;;;5115898;28;20102;-78
2021/10/13 00:25:22;;;;;;;7.65;4.68;;;9.00;87.80;;;;;;5114595;28;20074;-78
2021/10/13 00:27:48;;;;;;;5.22;3.85;;;9.00;87.70;;;;;;5115922;28;20034;-78
2021/10/13 00:30:13;;;;;;;5.47;4.90;;;9.00;87.90;;;;;;5115403;28;20054;-79
2021/10/13 00:32:39;;;;;;;6.15;4.50;;;9.00;87.90;;;;;;5115726;28;20046;-78
2021/10/13 00:35:05;;;;;;;5.95;5.25;;;8.90;88.00;;;;;;5114385;28;20015;-81
2021/10/13 00:37:30;;;;;;;5.55;4.75;;;8.90;88.10;;;;;;5115660;28;20035;-80
2021/10/13 00:39:56;;;;;;;6.43;4.85;;;8.90;88.00;;;;;;5115600;28;20024;-80
2021/10/13 00:42:22;;;;;;;9.32;6.55;;;8.90;87.70;;;;;;5115364;28;20024;-80
2021/10/13 00:44:47;;;;;;;7.22;6.53;;;8.80;87.40;;;;;;5115600;28;20019;-79
2021/10/13 00:47:13;;;;;;;9.02;5.93;;;8.80;87.50;;;;;;5115556;28;20039;-80
2021/10/13 00:49:39;;;;;;;9.75;6.13;;;8.80;87.70;;;;;;5114058;28;20472;-80
2021/10/13 00:52:05;;;;;;;8.75;6.03;;;8.70;87.60;;;;;;5114039;28;20032;-80
2021/10/13 00:54:31;;;;;;;8.05;6.60;;;8.70;87.40;;;;;;5115271;28;20020;-79
2021/10/13 00:56:57;;;;;;;8.80;6.60;;;8.70;87.50;;;;;;5115239;28;20361;-79
2021/10/13 00:59:23;;;;;;;7.82;6.25;;;8.70;88.30;;;;;;5115131;28;20020;-78
2021/10/13 01:01:51;;;;;;;10.80;7.65;;;8.80;87.20;;;;;;5113980;28;20023;-79
2021/10/13 01:04:37;;;;;;;9.60;7.40;;;8.70;87.80;;;;;;5115378;28;20030;-79
2021/10/13 01:07:03;;;;;;;;;;;8.60;87.10;;;;;;5115548;28;20024;-79
2021/10/13 01:09:37;;;;;;;8.25;6.70;;;8.50;87.50;;;;;;5114989;28;19903;-79
2021/10/13 01:12:15;;;;;;;10.07;5.40;;;8.60;87.50;;;;;;5115000;28;20364;-79
2021/10/13 01:15:02;;;;;;;9.43;7.22;;;8.60;87.50;;;;;;5114825;28;20015;-79
2021/10/13 01:17:42;;;;;;;10.93;7.53;;;8.60;87.40;;;;;;5114974;28;20047;-78
2021/10/13 01:20:17;;;;;;;9.90;7.03;;;8.60;87.30;;;;;;5114907;28;20408;-79
2021/10/13 01:23:24;;;;;;;8.18;6.82;;;8.70;87.40;;;;;;5114912;28;20027;-79
2021/10/13 01:26:02;;;;;;;9.48;7.47;;;8.70;87.10;;;;;;5114745;28;20028;-78
2021/10/13 01:28:34;;;;;;;8.48;6.93;;;8.70;86.90;;;;;;5113583;28;20422;-78
2021/10/13 01:31:23;;;;;;;10.45;6.38;;;8.80;87.00;;;;;;5113746;28;20131;-78
2021/10/13 01:34:01;;;;;;;8.00;6.53;;;8.80;86.70;;;;;;5114517;28;20023;-78
2021/10/13 01:36:49;;;;;;;10.75;7.90;;;8.80;86.30;;;;;;5114614;28;20464;-78
2021/10/13 01:39:15;;;;;;;11.38;7.40;;;8.70;86.00;;;;;;5114345;28;20031;-79
2021/10/13 01:41:45;;;;;;;12.15;8.73;;;8.70;86.20;;;;;;5114357;28;20020;-78
2021/10/13 01:44:13;;;;;;;10.02;7.63;;;8.60;85.80;;;;;;5116577;28;20028;-79
2021/10/13 01:46:42;;;;;;;12.88;8.23;;;8.50;87.00;;;;;;5116887;28;20035;-79
2021/10/13 01:49:08;;;;;;;11.70;7.82;;;8.50;86.50;;;;;;5138990;28;20067;-79
2021/10/13 01:51:35;;;;;;;14.05;9.30;;;8.50;86.80;;;;;;5135947;28;20039;-80
2021/10/13 01:54:02;;;;;;;11.32;9.07;;;8.50;86.80;;;;;;5114475;28;20020;-79
2021/10/13 01:56:29;;;;;;;11.75;8.75;;;8.50;86.70;;;;;;5114130;28;20032;-79
2021/10/13 01:58:59;;;;;;;13.00;10.00;;;8.50;86.80;;;;;;5114135;28;20020;-80
2021/10/13 02:01:31;;;;;;;12.73;8.90;;;8.50;86.80;;;;;;5112896;28;20027;-79
2021/10/13 02:04:01;;;;;;;12.00;9.32;;;8.40;86.30;;;;;;5114046;28;20024;-79
2021/10/13 02:06:29;;;;;;;12.68;8.45;;;8.30;86.50;;;;;;5113236;28;20026;-78
2021/10/13 02:08:56;;;;;;;11.63;8.20;;;8.20;86.10;;;;;;5114847;28;20052;-79
2021/10/13 02:11:29;;;;;;;14.00;8.77;;;8.20;86.20;;;;;;5115451;28;20486;-79
2021/10/13 02:13:58;;;;;;;15.18;9.45;;;8.20;86.70;;;;;;5116829;28;20024;-79
2021/10/13 02:16:24;;;;;;;12.07;8.65;;;8.10;86.50;;;;;;5114663;28;20113;-79
2021/10/13 02:18:51;;;;;;;11.32;8.30;;;8.10;86.70;;;;;;5113825;28;20478;-79
2021/10/13 02:21:21;;;;;;;14.45;9.15;;;8.00;86.80;;;;;;5119382;28;20034;-77
2021/10/13 02:23:47;;;;;;;13.98;9.30;;;8.10;86.80;;;;;;5114815;28;20020;-78
2021/10/13 02:26:22;;;;;;;13.48;10.18;;;8.10;86.70;;;;;;5113674;28;20051;-79
2021/10/13 02:28:54;;;;;;;14.75;9.93;;;8.00;86.80;;;;;;5113861;28;20375;-79
2021/10/13 02:31:20;;;;;;;13.52;9.85;;;7.90;87.50;;;;;;5112318;28;20093;-79
2021/10/13 02:33:46;;;;;;;14.18;10.63;;;7.70;87.70;;;;;;5113667;28;20023;-79
2021/10/13 02:36:11;;;;;;;16.48;10.50;;;7.70;88.10;;;;;;5113533;28;20076;-79
2021/10/13 02:38:37;;;;;;;14.98;10.05;;;7.60;88.20;;;;;;5113673;28;20068;-79
2021/10/13 02:41:03;;;;;;;15.63;9.93;;;7.60;88.30;;;;;;5112296;28;20085;-78
2021/10/13 02:43:29;;;;;;;14.93;9.95;;;7.70;88.50;;;;;;5113210;28;20472;-78
2021/10/13 02:46:04;;;;;;;13.95;9.95;;;7.70;89.30;;;;;;5113502;28;20045;-78
2021/10/13 02:48:33;;;;;;;13.98;10.65;;;7.70;88.40;;;;;;5113521;28;20055;-78
2021/10/13 02:51:23;;;;;;;14.65;11.00;;;7.70;88.00;;;;;;5113312;28;20028;-78
2021/10/13 02:53:58;;;;;;;13.65;9.93;;;7.80;88.00;;;;;;5112269;28;20032;-78
2021/10/13 02:56:32;;;;;;;14.55;10.18;;;7.90;88.10;;;;;;5113362;28;20020;-78
2021/10/13 02:59:06;;;;;;;15.18;10.02;;;7.90;87.60;;;;;;5112025;28;20356;-78
2021/10/13 03:01:38;;;;;;;17.20;9.77;;;7.80;87.60;;;;;;5113255;28;20043;-78
2021/10/13 03:04:06;;;;;;;16.60;10.07;;;7.60;87.30;;;;;;5113216;28;20023;-78
2021/10/13 03:06:38;;;;;;;16.05;9.35;;;7.50;87.90;;;;;;5113111;28;20019;-78
2021/10/13 03:09:06;;;;;;;12.95;9.00;;;7.50;88.20;;;;;;5113207;28;20027;-78
2021/10/13 03:11:33;;;;;;;11.13;8.43;;;7.50;88.30;;;;;;5113047;28;20042;-78
2021/10/13 03:14:01;;;;;;;17.95;8.98;;;7.50;88.50;;;;;;5113116;28;20058;-78
2021/10/13 03:16:28;;;;;;;12.50;8.35;;;7.50;89.00;;;;;;5094842;28;20372;-78
2021/10/13 03:18:56;;;;;;;17.48;9.43;;;7.50;88.00;;;;;;5111837;28;20468;-78
2021/10/13 03:21:26;;;;;;;16.83;8.98;;;7.50;87.90;;;;;;5113068;28;20065;-78
2021/10/13 03:23:52;;;;;;;14.23;9.63;;;7.40;87.90;;;;;;5113089;28;20047;-77
2021/10/13 03:26:17;;;;;;;11.93;8.75;;;7.30;88.10;;;;;;5112930;28;20485;-78
2021/10/13 03:28:43;;;;;;;14.05;9.02;;;7.10;88.40;;;;;;5112944;28;20015;-78
2021/10/13 03:31:09;;;;;;;14.70;9.07;;;7.00;88.50;;;;;;5112768;28;20100;-77
2021/10/13 03:33:36;;;;;;;15.85;10.20;;;6.90;88.90;;;;;;5112916;28;20116;-78
2021/10/13 03:36:05;;;;;;;15.02;9.68;;;6.90;88.90;;;;;;5112937;28;20086;-78
2021/10/13 03:38:31;;;;;;;14.82;8.52;;;6.90;89.00;;;;;;5113016;28;20031;-77
2021/10/13 03:40:57;;;;;;;18.85;8.88;;;6.90;88.90;;;;;;5112841;28;20525;-77
2021/10/13 03:43:23;;;;;;;13.50;8.35;;;7.00;88.80;;;;;;5112627;28;20035;-77
2021/10/13 03:45:49;;;;;;;12.25;7.57;;;7.10;88.40;;;;;;5111379;28;20031;-77
2021/10/13 03:48:14;;;;;;;10.65;8.07;;;7.10;88.20;;;;;;5112621;28;20023;-78
2021/10/13 03:50:40;;;;;;;10.90;7.18;;;7.10;88.00;;;;;;5112522;28;20487;-77
2021/10/13 03:53:06;;;;;;;13.43;7.15;;;7.20;87.80;;;;;;5112766;28;20058;-78
2021/10/13 03:55:31;;;;;;;12.68;7.93;;;7.20;87.50;;;;;;5114752;28;20016;-78
2021/10/13 03:57:57;;;;;;;13.77;8.40;;;7.30;87.40;;;;;;5116309;28;20547;-78
2021/10/13 04:00:23;;;;;;;10.32;8.00;;;7.20;86.80;;;;;;5116377;28;20051;-78
2021/10/13 04:02:49;;;;;;;11.93;7.65;;;7.20;86.60;;;;;;5116233;28;20388;-77
2021/10/13 04:05:15;;;;;;;12.65;8.20;;;7.20;86.60;;;;;;5116211;28;20016;-77
2021/10/13 04:07:41;;;;;;;10.93;7.95;;;7.30;86.70;;;;;;5116115;28;20538;-78
2021/10/13 04:10:09;;;;;;;9.32;7.28;;;7.30;86.50;;;;;;5116127;28;20093;-78
2021/10/13 04:12:36;;;;;;;19.13;9.77;;;7.40;86.40;;;;;;5115789;28;20038;-78
2021/10/13 04:15:03;;;;;;;16.42;10.07;;;7.20;86.20;;;;;;5115833;28;20024;-77
2021/10/13 04:17:29;;;;;;;13.25;8.55;;;7.10;86.40;;;;;;5115718;28;20357;-78
2021/10/13 04:19:55;;;;;;;11.95;8.05;;;7.20;86.50;;;;;;5115939;27;20023;-77
2021/10/13 04:22:21;;;;;;;14.88;9.50;;;7.20;86.30;;;;;;5115740;28;20073;-78
2021/10/13 04:24:46;;;;;;;15.73;9.98;;;7.20;86.00;;;;;;5115947;28;20502;-77
2021/10/13 04:27:12;;;;;;;14.15;8.77;;;7.10;86.00;;;;;;5115729;28;20084;-78
2021/10/13 04:29:37;;;;;;;12.68;8.18;;;7.00;86.40;;;;;;5114142;28;20076;-78
2021/10/13 04:32:03;;;;;;;13.45;7.90;;;7.00;86.40;;;;;;5115389;28;20042;-78
2021/10/13 04:34:29;;;;;;;14.05;8.25;;;7.00;86.50;;;;;;5114287;28;20030;-78
2021/10/13 04:36:54;;;;;;;10.80;8.07;;;7.10;86.70;;;;;;5115586;28;20024;-78
2021/10/13 04:39:20;;;;;;;12.98;8.25;;;7.20;86.50;;;;;;5114164;28;20086;-77
2021/10/13 04:41:45;;;;;;;13.60;8.23;;;7.30;86.40;;;;;;5115478;28;20100;-78
2021/10/13 04:44:11;;;;;;;15.18;8.80;;;7.30;86.40;;;;;;5114550;28;20094;-78
2021/10/13 04:46:37;;;;;;;13.95;10.02;;;7.30;86.50;;;;;;5114140;28;20036;-78
2021/10/13 04:49:02;;;;;;;12.98;9.80;;;7.30;85.60;;;;;;5115424;28;20115;-77
2021/10/13 04:51:28;;;;;;;16.35;9.68;;;7.20;86.20;;;;;;5113785;28;20034;-78
2021/10/13 04:53:54;;;;;;;13.75;7.30;;;7.20;86.40;;;;;;5115278;28;20433;-78
2021/10/13 04:56:19;;;;;;;13.40;8.05;;;7.20;86.20;;;;;;5115306;28;20024;-78
2021/10/13 04:58:45;;;;;;;12.00;7.50;;;7.20;86.30;;;;;;5115108;28;20487;-78
2021/10/13 05:01:10;;;;;;;11.20;8.10;;;7.20;86.30;;;;;;5115268;28;20483;-78
2021/10/13 05:03:37;;;;;;;13.95;7.85;;;7.30;86.40;;;;;;5115077;28;20012;-80
2021/10/13 05:06:03;;;;;;;14.20;8.15;;;7.40;86.40;;;;;;5114865;28;20380;-79
2021/10/13 05:08:28;;;;;;;14.00;8.05;;;7.40;86.20;;;;;;5115091;28;20023;-79
2021/10/13 05:10:54;;;;;;;10.55;7.15;;;7.50;86.00;;;;;;5114825;28;20035;-79
2021/10/13 05:13:19;;;;;;;10.90;8.13;;;7.50;85.60;;;;;;5114545;28;20023;-79
2021/10/13 05:15:45;;;;;;;17.05;8.75;;;7.50;85.40;;;;;;5114612;28;20043;-80
2021/10/13 05:18:11;;;;;;;10.70;7.55;;;7.60;85.20;;;;;;5113391;28;20383;-79
2021/10/13 05:20:40;;;;;;;12.30;8.23;;;7.60;85.20;;;;;;5114659;28;20133;-79
2021/10/13 05:23:06;;;;;;;14.93;8.73;;;7.60;84.90;;;;;;5114674;28;20023;-78
2021/10/13 05:25:32;;;;;;;11.25;8.38;;;7.60;84.80;;;;;;5114527;28;20023;-78
2021/10/13 05:27:58;;;;;;;15.00;8.38;;;7.60;84.80;;;;;;5113093;28;20028;-79
2021/10/13 05:30:23;;;;;;;15.15;10.05;;;7.60;84.90;;;;;;5112484;28;20134;-79
2021/10/13 05:32:49;;;;;;;15.27;10.27;;;7.60;84.80;;;;;;5113573;28;20040;-80
2021/10/13 05:35:15;;;;;;;20.15;11.77;;;7.60;85.00;;;;;;5118045;28;20042;-82
2021/10/13 05:37:40;;;;;;;20.85;11.32;;;7.60;85.00;;;;;;5116192;28;20417;-81
2021/10/13 05:40:07;;;;;;;13.70;10.05;;;7.50;85.00;;;;;;5118596;28;20052;-79
2021/10/13 05:42:32;;;;;;;14.15;9.55;;;7.60;84.90;;;;;;5116092;28;20058;-79
2021/10/13 05:44:58;;;;;;;15.80;10.57;;;7.60;84.70;;;;;;5114765;28;20511;-79
2021/10/13 05:47:24;;;;;;;16.55;10.95;;;7.50;84.80;;;;;;5116527;28;20020;-80
2021/10/13 05:49:49;;;;;;;18.95;12.07;;;7.50;85.10;;;;;;5116864;28;20034;-80
2021/10/13 05:52:15;;;;;;;14.70;10.45;;;7.40;85.00;;;;;;5130397;28;20019;-80
2021/10/13 05:54:40;;;;;;;17.77;11.18;;;7.30;85.50;;;;;;5138424;28;20028;-81
2021/10/13 05:57:06;;;;;;;15.00;9.88;;;7.30;85.80;;;;;;5119416;28;20099;-80
2021/10/13 05:59:32;;;;;;;18.45;12.20;;;7.30;86.30;;;;;;5114518;28;20468;-80
2021/10/13 06:01:58;;;;;;;13.70;10.25;;;7.20;85.90;;;;;;5112831;28;20031;-81
2021/10/13 06:04:23;;;;;;;20.88;11.20;;;7.20;86.10;;;;;;5112764;28;20027;-80
2021/10/13 06:06:49;;;;;;;18.10;11.93;;;7.30;86.20;;;;;;5112557;28;20023;-81
2021/10/13 06:09:15;;;;;;;15.65;11.43;;;7.30;85.90;;;;;;5113873;28;20026;-81
2021/10/13 06:11:41;;;;;;;21.75;12.40;;;7.20;86.20;;;;;;5112998;28;20083;-80
2021/10/13 06:14:07;;;;;;;20.35;11.07;;;7.20;86.00;;;;;;5112320;28;20115;-81
2021/10/13 06:16:33;;;;;;;17.48;12.60;;;7.20;86.10;;;;;;5113555;28;20011;-82
2021/10/13 06:18:59;;;;;;;20.92;11.90;;;7.20;86.20;;;;;;5111799;28;20442;-82
2021/10/13 06:21:24;;;;;;;16.65;11.02;;;7.20;86.50;;;;;;5112449;28;20030;-82
2021/10/13 06:23:50;;;;;;;16.58;10.75;;;7.20;85.80;;;;;;5113277;28;20215;-82
2021/10/13 06:26:17;;;;;;;18.05;10.75;;;7.30;86.00;;;;;;5112257;28;20027;-82
2021/10/13 06:28:43;;;;;;;16.30;11.55;;;7.30;85.40;;;;;;5113719;28;20472;-82
2021/10/13 06:31:09;;;;;;;16.67;10.38;;;7.40;85.90;;;;;;5113150;28;20051;-82
2021/10/13 06:33:36;;;;;;;20.55;11.73;;;7.50;85.90;;;;;;5113597;28;20027;-82
2021/10/13 06:36:06;;;;;;;17.98;11.82;;;7.50;85.40;;;;;;5113283;28;20074;-82
2021/10/13 06:38:33;;;;;;;16.02;10.52;;;7.60;84.90;;;;;;5112567;28;20606;-81
2021/10/13 06:40:58;;;;;;;14.05;8.93;;;7.60;84.20;;;;;;5115082;28;20019;-81
2021/10/13 06:43:26;;;;;;;16.33;10.35;;;7.60;84.00;;;;;;5113059;28;20057;-82
2021/10/13 06:45:51;;;;;;;15.00;9.30;;;7.60;83.90;;;;;;5113091;28;20064;-82
2021/10/13 06:48:18;;;;;;;18.42;10.75;;;7.60;84.00;;;;;;5121124;28;20028;-82
2021/10/13 06:50:43;;;;;;;15.20;9.00;;;7.60;84.40;;;;;;5120853;28;20440;-79
2021/10/13 06:53:09;;;;;;;14.25;9.25;;;7.70;84.40;;;;;;5118377;28;20032;-81
2021/10/13 06:55:35;;;;;;;12.90;8.23;;;7.80;84.20;;;;;;5116586;28;20040;-81
2021/10/13 06:58:00;;;;;;;13.57;9.50;;;7.90;85.10;;;;;;5114774;28;20535;-80
2021/10/13 07:00:26;;;;;;;18.02;9.85;;;8.00;83.60;;;;;;5118183;28;20024;-80
2021/10/13 07:02:51;;;;;;;21.65;10.32;;;8.00;83.20;;;;;;5116087;28;20069;-79
2021/10/13 07:05:17;;;;;;;19.98;9.65;;;8.10;87.00;;;;;;5115171;28;20034;-79
2021/10/13 07:07:47;;;;;;;15.75;8.48;;;8.50;89.10;;;;;;5115968;28;20027;-79
2021/10/13 07:10:14;;;;;;;13.13;8.25;;;8.80;86.60;;;;;;5114428;28;20023;-77
2021/10/13 07:12:40;;;;;;;13.20;7.53;;;9.20;83.90;;;;;;5114650;28;20115;-78
2021/10/13 07:15:07;;;;;;;12.88;7.47;;;9.50;81.60;;;;;;5113196;28;20149;-79
2021/10/13 07:17:33;;;;;;;11.85;6.68;;;9.80;79.90;;;;;;5112816;28;20511;-78
2021/10/13 07:20:02;;;;;;;11.98;6.28;;;10.10;78.60;;;;;;5113121;28;20103;-78
2021/10/13 07:22:28;;;;;;;15.13;7.70;;;10.20;77.00;;;;;;5112467;28;20024;-78
2021/10/13 07:24:55;;;;;;;14.35;8.23;;;10.20;76.70;;;;;;5113032;28;20019;-78
2021/10/13 07:27:21;;;;;;;14.07;8.20;;;10.30;75.60;;;;;;5112852;28;20024;-77
2021/10/13 07:29:54;;;;;;;12.55;7.38;;;10.30;74.40;;;;;;5113754;28;20022;-78
2021/10/13 07:32:20;;;;;;;10.82;6.57;;;10.40;74.50;;;;;;5116666;28;20031;-79
2021/10/13 07:34:46;;;;;;;15.00;7.28;;;10.40;73.80;;;;;;5117072;28;20475;-81
2021/10/13 07:37:11;;;;;;;9.07;6.25;;;10.40;73.50;;;;;;5115265;28;20024;-81
2021/10/13 07:39:37;;;;;;;12.13;6.28;;;10.30;73.10;;;;;;5115460;28;20016;-81
2021/10/13 07:42:03;;;;;;;8.45;5.40;;;10.10;72.50;;;;;;5116425;28;20059;-80
2021/10/13 07:44:28;;;;;;;9.95;6.95;;;10.00;73.20;;;;;;5115535;28;20024;-80
2021/10/13 07:46:54;;;;;;;8.75;5.40;;;9.60;73.30;;;;;;5117187;28;20028;-79
2021/10/13 07:49:19;;;;;;;11.60;6.20;;;9.40;74.30;;;;;;5116486;28;20412;-80
2021/10/13 07:51:45;;;;;;;10.73;6.30;;;9.30;75.30;;;;;;5116152;28;20165;-81
2021/10/13 07:54:10;;;;;;;11.30;6.35;;;9.20;75.70;;;;;;5116214;28;20019;-81
2021/10/13 07:56:36;;;;;;;13.10;7.53;;;9.10;76.40;;;;;;5114968;28;20157;-81
2021/10/13 07:59:01;;;;;;;10.82;6.05;;;9.00;76.30;;;;;;5116540;28;20019;-80
2021/10/13 08:01:27;;;;;;;13.73;7.20;;;9.00;76.70;;;;;;5114900;28;20479;-82
2021/10/13 08:03:55;;;;;;;11.48;7.35;;;9.00;76.70;;;;;;5116285;28;20034;-82
2021/10/13 08:06:20;;;;;;;15.10;7.75;;;8.90;77.10;;;;;;5116165;28;20022;-82
2021/10/13 08:08:46;;;;;;;11.38;6.38;;;8.90;76.90;;;;;;5116263;28;20371;-80
2021/10/13 08:11:11;;;;;;;9.93;6.40;;;8.90;76.50;;;;;;5115932;28;20543;-81
2021/10/13 08:13:37;;;;;;;12.25;6.70;;;8.90;75.80;;;;;;5115608;28;20024;-81
2021/10/13 08:16:03;;;;;;;9.38;5.95;;;9.20;75.40;;;;;;5115479;28;20020;-82
2021/10/13 08:18:29;;;;;;;12.02;6.75;;;9.50;75.30;;;;;;5115833;28;20023;-80
2021/10/13 08:20:55;;;;;;;11.68;6.75;;;9.70;74.70;;;;;;5114102;28;20502;-81
2021/10/13 08:23:21;;;;;;;9.15;6.03;;;9.90;73.80;;;;;;5115726;28;20110;-80
2021/10/13 08:25:48;;;;;;;10.07;6.38;;;10.10;73.20;;;;;;5115625;28;20058;-81
2021/10/13 08:28:13;;;;;;;10.57;5.32;;;10.10;72.90;;;;;;5115497;28;20035;-81
2021/10/13 08:30:39;;;;;;;7.13;4.53;;;10.10;72.90;;;;;;5115289;28;20048;-81
2021/10/13 08:33:05;;;;;;;7.32;4.43;;;10.10;71.90;;;;;;5115334;28;20361;-83
2021/10/13 08:35:30;;;;;;;8.25;4.30;;;10.30;71.50;;;;;;5114004;28;20110;-81
2021/10/13 08:37:56;;;;;;;7.28;4.20;;;10.50;70.80;;;;;;5115227;28;20028;-82
2021/10/13 08:40:22;;;;;;;8.70;4.20;;;10.70;69.20;;;;;;5114901;28;20028;-82
2021/10/13 08:42:57;;;;;;;8.73;3.45;;;11.00;68.50;;;;;;5114026;28;20015;-82
2021/10/13 08:45:25;;;;;;;10.23;4.18;;;11.30;67.50;;;;;;5115708;28;20024;-82
2021/10/13 08:47:51;;;;;;;8.82;4.80;;;11.70;66.10;;;;;;5119892;28;20582;-81
2021/10/13 08:50:17;;;;;;;7.70;5.22;;;11.60;64.30;;;;;;5119058;28;20035;-82
2021/10/13 08:52:42;;;;;;;9.40;5.15;;;11.70;65.00;;;;;;5121915;28;20038;-81
2021/10/13 08:55:08;;;;;;;10.35;4.70;;;11.70;64.40;;;;;;5119078;28;20019;-81
2021/10/13 08:57:35;;;;;;;6.90;3.97;;;11.00;65.30;;;;;;5116021;28;20024;-80
2021/10/13 09:00:00;;;;;;;7.85;3.80;;;10.70;67.40;;;;;;5115527;28;20026;-81
2021/10/13 09:02:38;;;;;;;6.47;3.60;;;10.70;67.50;;;;;;5114988;28;20024;-82
2021/10/13 09:05:05;;;;;;;8.30;4.20;;;10.50;67.60;;;;;;5113397;28;20426;-81
2021/10/13 09:07:32;;;;;;;6.72;3.90;;;10.30;67.10;;;;;;5114763;28;20020;-82
2021/10/13 09:09:57;;;;;;;10.65;5.85;;;10.10;68.70;;;;;;5113577;28;20152;-80
2021/10/13 09:12:31;;;;;;;11.43;4.28;;;10.20;70.50;;;;;;5114168;27;20456;-80
2021/10/13 09:15:15;;;;;;;9.25;4.10;;;10.40;69.70;;;;;;5114740;28;20027;-81
2021/10/13 09:17:59;;;;;;;6.97;4.00;;;10.50;68.10;;;;;;5114732;28;20020;-81
2021/10/13 09:20:31;;;;;;;7.10;3.75;;;10.30;69.30;;;;;;5114604;28;20023;-81
2021/10/13 09:23:03;;;;;;;4.30;2.88;;;10.30;69.50;;;;;;5114512;28;20464;-81
2021/10/13 09:25:29;;;;;;;5.13;2.65;;;10.30;67.10;;;;;;5114462;28;20020;-80
2021/10/13 09:27:55;;;;;;;7.13;2.78;;;10.50;66.80;;;;;;5114572;28;20073;-81
2021/10/13 09:30:27;;;;;;;5.60;3.13;;;10.40;67.90;;;;;;5113039;28;20082;-81
2021/10/13 09:32:53;;;;;;;5.88;2.67;;;10.50;67.10;;;;;;5114468;28;20475;-82
2021/10/13 09:35:28;;;;;;;5.28;3.00;;;10.70;66.70;;;;;;5113951;28;20019;-82
2021/10/13 09:37:54;;;;;;;3.55;2.83;;;11.00;66.10;;;;;;5114527;28;20502;-80
2021/10/13 09:40:32;;;;;;;5.80;2.97;;;11.10;64.80;;;;;;5114271;28;20024;-82
2021/10/13 09:42:58;;;;;;;7.32;3.10;;;11.00;64.80;;;;;;5114092;28;20024;-81
2021/10/13 09:45:29;;;;;;;7.57;3.58;;;10.90;65.50;;;;;;5114097;28;20020;-81
2021/10/13 09:48:06;;;;;;;9.23;3.97;;;11.00;66.30;;;;;;5112988;28;20050;-81
2021/10/13 09:50:50;;;;;;;10.00;4.60;;;10.80;67.10;;;;;;5114135;28;20031;-82
2021/10/13 09:53:22;;;;;;;7.10;3.30;;;10.80;67.30;;;;;;5113674;28;20479;-83
2021/10/13 09:55:49;;;;;;;12.63;4.20;;;10.90;67.60;;;;;;5112941;28;20050;-82
2021/10/13 09:58:39;;;;;;;5.95;3.15;;;10.80;67.30;;;;;;5113862;28;20023;-82
2021/10/13 10:01:11;;;;;;;17.27;6.03;;;10.90;67.10;;;;;;5113582;28;20506;-81
2021/10/13 10:03:40;;;;;;;6.88;3.10;;;10.70;66.50;;;;;;5113654;28;20020;-82
2021/10/13 10:06:07;;;;;;;3.33;2.25;;;10.60;65.90;;;;;;5112276;28;20031;-81
2021/10/13 10:08:57;;;;;;;4.03;2.20;;;10.60;64.90;;;;;;5111846;28;20397;-78
2021/10/13 10:11:33;;;;;;;6.40;2.65;;;10.60;65.70;;;;;;5113116;28;20081;-77
2021/10/13 10:14:01;;;;;;;6.30;3.13;;;10.70;66.60;;;;;;5113125;28;20138;-79
2021/10/13 10:16:33;;;;;;;8.52;4.75;;;10.80;66.50;;;;;;5113411;28;20384;-77
2021/10/13 10:19:21;;;;;;;2.75;1.77;;;11.10;65.50;;;;;;5113536;28;20144;-78
2021/10/13 10:21:51;;;;;;;7.43;2.42;;;11.30;62.50;;;;;;5113298;28;20042;-78
2021/10/13 10:24:35;;;;;;;7.03;2.10;;;11.40;62.60;;;;;;5113278;28;20030;-78
2021/10/13 10:27:28;;;;;;;6.53;1.55;;;11.40;62.70;;;;;;5113251;28;20094;-78
2021/10/13 10:30:02;;;;;;;4.95;1.75;;;11.80;59.20;;;;;;5113029;28;20026;-77
2021/10/13 10:32:28;;;;;;;3.78;1.50;;;11.70;55.30;;;;;;5113167;28;20036;-77
2021/10/13 10:35:05;;;;;;;2.20;1.25;;;11.60;57.70;;;;;;5113049;28;20023;-79
2021/10/13 10:37:43;;;;;;;7.07;1.98;;;11.80;58.70;;;;;;5112988;28;20023;-77
2021/10/13 10:40:14;;;;;;;3.72;1.77;;;11.80;58.70;;;;;;5112849;28;20032;-79
2021/10/13 10:42:44;;;;;;;7.47;2.00;;;11.80;58.90;;;;;;5112979;28;20058;-79
2021/10/13 10:45:20;;;;;;;7.72;1.77;;;12.10;59.70;;;;;;5112978;28;20084;-79
2021/10/13 10:47:58;;;;;;;9.52;2.33;;;12.20;58.90;;;;;;5113174;28;20106;-75
2021/10/13 10:50:54;;;;;;;5.13;2.17;;;11.90;58.20;;;;;;5111557;28;20047;-80
2021/10/13 10:53:34;;;;;;;5.90;1.80;;;11.70;59.60;;;;;;5112753;28;20071;-78
2021/10/13 10:56:15;;;;;;;5.18;1.55;;;11.80;59.30;;;;;;5111527;28;20028;-76
2021/10/13 10:59:24;;;;;;;5.57;1.88;;;11.90;59.20;;;;;;5112867;28;20031;-77
2021/10/13 11:02:09;;;;;;;2.80;1.20;;;12.00;58.90;;;;;;5090194;28;20031;-78
2021/10/13 11:04:36;;;;;;;1.00;0.90;;;11.70;58.60;;;;;;5092431;28;20035;-79
2021/10/13 11:07:02;;;;;;;3.30;0.95;;;11.90;58.30;;;;;;5108286;28;20051;-79
2021/10/13 11:09:28;;;;;;;0.88;0.60;;;12.00;55.80;;;;;;5117023;28;20027;-80
2021/10/13 11:11:54;;;;;;;2.17;1.00;;;12.20;54.40;;;;;;5116748;28;20103;-78
2021/10/13 11:14:25;;;;;;;1.35;0.80;;;12.30;50.70;;;;;;5116689;28;20102;-79
2021/10/13 11:16:57;;;;;;;2.42;0.60;;;12.50;50.60;;;;;;5116850;28;20027;-80
2021/10/13 11:19:32;;;;;;;2.13;0.80;;;12.80;49.90;;;;;;5116537;28;20020;-79
2021/10/13 11:22:03;;;;;;;1.33;0.80;;;12.90;48.40;;;;;;5116789;28;20552;-80
2021/10/13 11:24:29;;;;;;;2.05;0.82;;;13.10;48.50;;;;;;5116794;28;20223;-80
2021/10/13 11:26:55;;;;;;;1.83;0.77;;;13.20;48.80;;;;;;5115494;28;20490;-80
2021/10/13 11:29:25;;;;;;;4.22;0.80;;;13.20;49.40;;;;;;5116866;28;20044;-79
2021/10/13 11:32:09;;;;;;;3.50;0.73;;;13.10;49.20;;;;;;5116511;27;20039;-79
2021/10/13 11:34:35;;;;;;;2.38;0.93;;;12.70;49.80;;;;;;5116432;28;20061;-80
2021/10/13 11:37:01;;;;;;;1.52;0.77;;;13.20;48.90;;;;;;5116687;28;20077;-80
2021/10/13 11:39:34;;;;;;;1.38;0.75;;;13.80;47.70;;;;;;5116547;28;20031;-81
2021/10/13 11:42:00;;;;;;;1.67;0.82;;;14.50;46.50;;;;;;5116695;28;20027;-81
2021/10/13 11:44:27;;;;;;;3.25;0.82;;;15.10;43.80;;;;;;5116102;28;20020;-81
2021/10/13 11:46:57;;;;;;;3.55;0.85;;;14.70;43.20;;;;;;5115185;28;20387;-80
2021/10/13 11:49:23;;;;;;;3.83;0.85;;;14.80;43.00;;;;;;5116579;28;20020;-80
2021/10/13 11:52:24;;;;;;;2.90;0.98;;;15.10;42.80;;;;;;5116447;28;20118;-81
2021/10/13 11:54:58;;;;;;;3.90;0.85;;;15.60;41.10;;;;;;5076679;28;20026;-80
2021/10/13 11:57:24;;;;;;;2.83;1.10;;;16.10;40.10;;;;;;5111547;28;20050;-80
2021/10/13 12:00:13;;;;;;;5.32;0.75;;;16.30;38.20;;;;;;5116055;28;20016;-80
2021/10/13 12:02:40;;;;;;;3.28;0.80;;;16.70;37.60;;;;;;5116023;28;20024;-80
2021/10/13 12:05:08;;;;;;;1.88;0.70;;;17.00;37.10;;;;;;5116147;28;20036;-80
2021/10/13 12:07:44;;;;;;;4.22;0.75;;;17.40;36.80;;;;;;5116204;28;20020;-79
2021/10/13 12:10:10;;;;;;;1.17;0.63;;;17.70;35.00;;;;;;5116159;28;20027;-80
2021/10/13 12:12:36;;;;;;;3.47;0.57;;;18.10;34.10;;;;;;5115916;28;20039;-80
2021/10/13 12:15:19;;;;;;;0.57;0.40;;;18.20;33.60;;;;;;5115476;28;20491;-81
2021/10/13 12:17:45;;;;;;;2.20;0.70;;;18.20;34.00;;;;;;5116018;28;20399;-79
2021/10/13 12:20:20;;;;;;;5.75;0.80;;;17.90;34.50;;;;;;5115923;28;20015;-80
2021/10/13 12:22:50;;;;;;;3.63;0.75;;;17.70;34.70;;;;;;5115781;28;20045;-79
2021/10/13 12:25:30;;;;;;;2.05;0.60;;;17.50;35.60;;;;;;5115350;28;20031;-80
2021/10/13 12:28:00;;;;;;;1.13;0.80;;;17.30;36.10;;;;;;5115576;28;20031;-80
2021/10/13 12:30:37;;;;;;;1.90;0.60;;;17.20;36.00;;;;;;5115309;28;20051;-80
2021/10/13 12:33:02;;;;;;;3.45;0.93;;;16.90;36.90;;;;;;5115525;28;20487;-80
2021/10/13 12:35:29;;;;;;;5.78;1.40;;;16.60;37.60;;;;;;5115441;28;20034;-80
2021/10/13 12:37:55;;;;;;;2.70;1.23;;;16.20;40.70;;;;;;5115802;28;20045;-80
2021/10/13 12:40:20;;;;;;;2.58;1.23;;;15.80;43.40;;;;;;5114125;28;20068;-80
2021/10/13 12:42:46;;;;;;;3.35;1.00;;;15.30;45.90;;;;;;5115440;28;20503;-80
2021/10/13 12:45:12;;;;;;;2.13;0.98;;;14.90;47.20;;;;;;5115172;28;20031;-80
2021/10/13 12:47:38;;;;;;;0.88;0.70;;;14.60;48.20;;;;;;5115063;28;20034;-80
2021/10/13 12:50:12;;;;;;;1.38;0.90;;;14.20;49.40;;;;;;5115056;28;20020;-81
2021/10/13 12:52:38;;;;;;;2.05;0.93;;;14.00;50.90;;;;;;5114866;28;20038;-81
2021/10/13 12:55:03;;;;;;;2.40;1.15;;;13.90;52.00;;;;;;5115144;28;20020;-80